sensor_id;sensor_type;location;lat;lon;timestamp;pressure;altitude;pressure_sealevel;temperature;humidity
39823;BME280;25499;53.958;10.970;2023-03-14T06:52:33;98342.63;;;8.80;100.00
39823;BME280;25499;53.958;10.970;2023-03-14T06:55:01;98338.06;;;8.87;100.00
39823;BME280;25499;53.958;10.970;2023-03-14T06:57:27;98341.44;;;8.89;100.00
39823;BME280;25499;53.958;10.970;2023-03-14T06:59:52;98345.69;;;8.91;100.00
39823;BME280;25499;53.958;10.970;2023-03-14T07:02:18;98352.59;;;8.91;100.00
39823;BME280;25499;53.958;10.970;2023-03-14T07:04:44;98352.78;;;8.86;100.00
39823;BME280;25499;53.958;10.970;2023-03-14T07:07:09;98361.41;;;8.87;100.00
39823;BME280;25499;53.958;10.970;2023-03-14T07:09:35;98362.59;;;8.78;100.00
39823;BME280;25499;53.958;10.970;2023-03-14T07:12:01;98365.88;;;8.83;100.00
39823;BME280;25499;53.958;10.970;2023-03-14T07:14:26;98364.78;;;8.89;100.00
39823;BME280;25499;53.958;10.970;2023-03-14T07:16:52;98365.88;;;8.83;100.00
39823;BME280;25499;53.958;10.970;2023-03-14T07:19:17;98371.06;;;8.83;100.00
39823;BME280;25499;53.958;10.970;2023-03-14T07:21:43;98368.25;;;8.89;100.00
39823;BME280;25499;53.958;10.970;2023-03-14T07:24:09;98369.28;;;8.84;100.00
39823;BME280;25499;53.958;10.970;2023-03-14T07:26:35;98371.16;;;8.80;100.00
39823;BME280;25499;53.958;10.970;2023-03-14T07:29:00;98377.72;;;8.90;100.00
39823;BME280;25499;53.958;10.970;2023-03-14T07:31:28;98379.53;;;8.88;100.00
39823;BME280;25499;53.958;10.970;2023-03-14T07:33:54;98381.44;;;8.83;100.00
39823;BME280;25499;53.958;10.970;2023-03-14T07:36:19;98381.22;;;8.89;100.00
39823;BME280;25499;53.958;10.970;2023-03-14T07:38:45;98390.59;;;8.93;100.00
39823;BME280;25499;53.958;10.970;2023-03-14T07:41:11;98394.25;;;8.88;100.00
39823;BME280;25499;53.958;10.970;2023-03-14T07:43:36;98408.06;;;8.88;100.00
39823;BME280;25499;53.958;10.970;2023-03-14T07:46:01;98414.59;;;9.00;100.00
39823;BME280;25499;53.958;10.970;2023-03-14T07:48:27;98406.91;;;8.97;100.00
39823;BME280;25499;53.958;10.970;2023-03-14T07:50:54;98410.91;;;9.06;100.00
39823;BME280;25499;53.958;10.970;2023-03-14T07:53:21;98418.69;;;9.06;100.00
39823;BME280;25499;53.958;10.970;2023-03-14T07:55:48;98415.13;;;9.10;100.00
39823;BME280;25499;53.958;10.970;2023-03-14T07:58:14;98415.91;;;9.12;100.00
39823;BME280;25499;53.958;10.970;2023-03-14T08:00:39;98405.41;;;9.15;100.00
39823;BME280;25499;53.958;10.970;2023-03-14T08:03:05;98393.81;;;9.25;100.00
39823;BME280;25499;53.958;10.970;2023-03-14T08:05:30;98389.38;;;9.27;100.00
39823;BME280;25499;53.958;10.970;2023-03-14T08:07:56;98399.03;;;9.24;100.00
39823;BME280;25499;53.958;10.970;2023-03-14T08:10:21;98395.25;;;9.32;100.00
39823;BME280;25499;53.958;10.970;2023-03-14T08:12:49;98394.81;;;9.45;100.00
39823;BME280;25499;53.958;10.970;2023-03-14T10:16:37;98425.97;;;10.14;100.00
39823;BME280;25499;53.958;10.970;2023-03-14T10:19:10;98426.97;;;10.12;100.00
39823;BME280;25499;53.958;10.970;2023-03-14T10:21:38;98421.25;;;10.02;100.00
39823;BME280;25499;53.958;10.970;2023-03-14T10:24:34;98428.22;;;10.01;100.00
39823;BME280;25499;53.958;10.970;2023-03-14T10:27:05;98436.03;;;10.01;100.00
39823;BME280;25499;53.958;10.970;2023-03-14T10:29:32;98442.66;;;9.86;100.00
39823;BME280;25499;53.958;10.970;2023-03-14T10:32:06;98491.28;;;9.83;100.00
39823;BME280;25499;53.958;10.970;2023-03-14T10:34:36;98547.56;;;9.59;100.00
39823;BME280;25499;53.958;10.970;2023-03-14T10:37:22;98545.84;;;9.07;99.63
39823;BME280;25499;53.958;10.970;2023-03-14T10:39:54;98539.09;;;8.47;96.41
39823;BME280;25499;53.958;10.970;2023-03-14T10:42:31;98538.28;;;8.15;95.62
39823;BME280;25499;53.958;10.970;2023-03-14T10:45:01;98563.81;;;7.97;95.26
39823;BME280;25499;53.958;10.970;2023-03-14T10:47:28;98576.75;;;7.68;96.03
39823;BME280;25499;53.958;10.970;2023-03-14T10:49:54;98593.59;;;7.50;97.14
39823;BME280;25499;53.958;10.970;2023-03-14T10:55:00;98611.56;;;7.21;97.40
39823;BME280;25499;53.958;10.970;2023-03-14T10:57:26;98634.63;;;6.95;96.64
39823;BME280;25499;53.958;10.970;2023-03-14T10:59:53;98645.94;;;6.89;96.66
39823;BME280;25499;53.958;10.970;2023-03-14T11:07:55;98679.09;;;6.70;97.90
39823;BME280;25499;53.958;10.970;2023-03-14T11:10:32;98702.38;;;6.70;97.83
39823;BME280;25499;53.958;10.970;2023-03-14T11:16:14;98714.78;;;6.52;97.65
39823;BME280;25499;53.958;10.970;2023-03-14T11:26:40;98750.00;;;6.13;97.79
39823;BME280;25499;53.958;10.970;2023-03-14T11:32:23;98762.84;;;6.16;98.13
39823;BME280;25499;53.958;10.970;2023-03-14T11:34:53;98769.00;;;6.09;98.21
39823;BME280;25499;53.958;10.970;2023-03-14T11:37:26;98780.16;;;6.11;97.55
39823;BME280;25499;53.958;10.970;2023-03-14T11:40:00;98782.72;;;6.12;97.89
39823;BME280;25499;53.958;10.970;2023-03-14T11:42:29;98796.50;;;6.13;97.25
39823;BME280;25499;53.958;10.970;2023-03-14T11:44:55;98791.66;;;5.91;96.83
39823;BME280;25499;53.958;10.970;2023-03-14T11:47:46;98812.91;;;6.09;97.11
39823;BME280;25499;53.958;10.970;2023-03-14T11:50:27;98813.84;;;6.06;97.23
39823;BME280;25499;53.958;10.970;2023-03-14T11:53:02;98839.66;;;6.06;97.73
39823;BME280;25499;53.958;10.970;2023-03-14T11:55:33;98843.94;;;6.06;98.03
39823;BME280;25499;53.958;10.970;2023-03-14T11:58:15;98844.94;;;5.95;98.08
39823;BME280;25499;53.958;10.970;2023-03-14T12:00:43;98848.38;;;5.99;97.74
39823;BME280;25499;53.958;10.970;2023-03-14T12:06:05;98849.06;;;6.10;96.95
39823;BME280;25499;53.958;10.970;2023-03-14T12:08:52;98850.69;;;6.16;95.93
39823;BME280;25499;53.958;10.970;2023-03-14T12:11:32;98861.88;;;6.16;96.15
39823;BME280;25499;53.958;10.970;2023-03-14T12:14:00;98865.34;;;6.14;95.76
39823;BME280;25499;53.958;10.970;2023-03-14T12:18:52;98878.22;;;6.17;95.27
39823;BME280;25499;53.958;10.970;2023-03-14T12:21:18;98881.75;;;6.13;95.25
39823;BME280;25499;53.958;10.970;2023-03-14T12:23:53;98886.84;;;6.16;94.33
39823;BME280;25499;53.958;10.970;2023-03-14T12:26:22;98886.03;;;6.12;93.84
39823;BME280;25499;53.958;10.970;2023-03-14T12:37:01;98904.34;;;5.95;92.77
39823;BME280;25499;53.958;10.970;2023-03-14T12:45:29;98921.41;;;6.10;92.98
39823;BME280;25499;53.958;10.970;2023-03-14T12:48:11;98926.69;;;6.03;92.82
39823;BME280;25499;53.958;10.970;2023-03-14T12:50:54;98925.97;;;5.88;92.28
39823;BME280;25499;53.958;10.970;2023-03-14T12:59:33;98962.59;;;6.21;93.62
39823;BME280;25499;53.958;10.970;2023-03-14T13:04:36;98951.69;;;5.99;92.34
39823;BME280;25499;53.958;10.970;2023-03-14T13:07:03;98952.44;;;6.06;91.80
39823;BME280;25499;53.958;10.970;2023-03-14T13:12:10;98958.78;;;5.82;91.08
39823;BME280;25499;53.958;10.970;2023-03-14T13:14:41;98973.38;;;5.84;91.71
39823;BME280;25499;53.958;10.970;2023-03-14T13:17:13;98988.06;;;5.81;91.63
39823;BME280;25499;53.958;10.970;2023-03-14T13:19:39;98985.81;;;5.51;91.73
39823;BME280;25499;53.958;10.970;2023-03-14T13:22:21;98990.88;;;5.60;91.79
39823;BME280;25499;53.958;10.970;2023-03-14T13:24:47;98998.50;;;5.71;92.34
39823;BME280;25499;53.958;10.970;2023-03-14T13:27:20;99013.81;;;5.87;92.55
39823;BME280;25499;53.958;10.970;2023-03-14T13:29:48;99014.50;;;6.04;92.49
39823;BME280;25499;53.958;10.970;2023-03-14T13:32:21;99022.06;;;6.18;92.58
39823;BME280;25499;53.958;10.970;2023-03-14T13:34:46;99042.72;;;6.20;92.78
39823;BME280;25499;53.958;10.970;2023-03-14T13:37:23;99044.56;;;6.10;91.82
39823;BME280;25499;53.958;10.970;2023-03-14T13:39:53;99043.03;;;5.90;90.67
39823;BME280;25499;53.958;10.970;2023-03-14T13:42:21;99046.59;;;5.78;91.25
39823;BME280;25499;53.958;10.970;2023-03-14T13:44:51;99052.81;;;5.62;92.30
39823;BME280;25499;53.958;10.970;2023-03-14T13:47:20;99069.31;;;5.49;93.72
39823;BME280;25499;53.958;10.970;2023-03-14T13:49:46;99095.09;;;5.50;95.09
39823;BME280;25499;53.958;10.970;2023-03-14T13:54:56;99130.31;;;5.54;95.95
39823;BME280;25499;53.958;10.970;2023-03-14T13:57:22;99144.13;;;5.53;97.03
39823;BME280;25499;53.958;10.970;2023-03-14T14:00:16;99133.81;;;5.53;97.76
39823;BME280;25499;53.958;10.970;2023-03-14T14:02:42;99151.06;;;5.48;98.85
39823;BME280;25499;53.958;10.970;2023-03-14T14:05:10;99156.38;;;5.27;99.15
39823;BME280;25499;53.958;10.970;2023-03-14T14:07:36;99162.47;;;5.19;99.90
39823;BME280;25499;53.958;10.970;2023-03-14T14:10:04;99175.25;;;5.32;100.00
39823;BME280;25499;53.958;10.970;2023-03-14T14:12:40;99180.31;;;5.44;100.00
39823;BME280;25499;53.958;10.970;2023-03-14T14:15:22;99178.63;;;5.40;100.00
39823;BME280;25499;53.958;10.970;2023-03-14T14:17:52;99166.59;;;5.36;99.97
39823;BME280;25499;53.958;10.970;2023-03-14T14:20:23;99174.28;;;5.48;100.00
39823;BME280;25499;53.958;10.970;2023-03-14T14:22:50;99182.03;;;5.45;100.00
39823;BME280;25499;53.958;10.970;2023-03-14T14:25:16;99180.41;;;5.35;100.00
39823;BME280;25499;53.958;10.970;2023-03-14T14:27:44;99182.09;;;5.36;100.00
39823;BME280;25499;53.958;10.970;2023-03-14T14:32:45;99192.28;;;5.53;99.89
39823;BME280;25499;53.958;10.970;2023-03-14T14:35:22;99194.88;;;5.51;99.80
39823;BME280;25499;53.958;10.970;2023-03-14T14:37:49;99199.97;;;5.62;99.20
39823;BME280;25499;53.958;10.970;2023-03-14T14:40:25;99195.66;;;5.63;98.26
39823;BME280;25499;53.958;10.970;2023-03-14T14:42:51;99196.47;;;5.66;98.00
39823;BME280;25499;53.958;10.970;2023-03-14T14:45:19;99181.13;;;5.52;94.41
39823;BME280;25499;53.958;10.970;2023-03-14T14:47:51;99153.63;;;5.48;91.29
39823;BME280;25499;53.958;10.970;2023-03-14T14:52:56;99118.41;;;5.38;86.01
39823;BME280;25499;53.958;10.970;2023-03-14T14:55:32;99119.22;;;5.46;84.70
39823;BME280;25499;53.958;10.970;2023-03-14T14:58:12;99124.34;;;5.51;83.83
39823;BME280;25499;53.958;10.970;2023-03-14T15:00:40;99119.97;;;5.60;82.69
39823;BME280;25499;53.958;10.970;2023-03-14T15:03:12;99121.75;;;5.51;82.15
39823;BME280;25499;53.958;10.970;2023-03-14T15:05:39;99111.50;;;5.43;81.56
39823;BME280;25499;53.958;10.970;2023-03-14T15:08:10;99114.88;;;5.51;80.24
39823;BME280;25499;53.958;10.970;2023-03-14T15:10:36;99116.47;;;5.61;79.41
39823;BME280;25499;53.958;10.970;2023-03-14T15:13:01;99120.03;;;5.51;79.47
39823;BME280;25499;53.958;10.970;2023-03-14T15:15:27;99077.94;;;5.45;77.28
39823;BME280;25499;53.958;10.970;2023-03-14T15:17:52;99075.41;;;5.41;76.25
39823;BME280;25499;53.958;10.970;2023-03-14T15:20:18;99077.22;;;5.29;76.22
39823;BME280;25499;53.958;10.970;2023-03-14T15:22:45;99087.44;;;5.38;75.52
39823;BME280;25499;53.958;10.970;2023-03-14T15:25:11;99057.41;;;5.32;74.34
39823;BME280;25499;53.958;10.970;2023-03-14T15:27:38;99061.72;;;5.32;74.19
39823;BME280;25499;53.958;10.970;2023-03-14T15:30:11;99107.28;;;5.33;74.76
39823;BME280;25499;53.958;10.970;2023-03-14T15:32:37;99090.28;;;5.12;74.27
39823;BME280;25499;53.958;10.970;2023-03-14T15:35:03;99125.47;;;5.16;75.11
39823;BME280;25499;53.958;10.970;2023-03-14T15:37:29;99116.88;;;5.20;74.64
39823;BME280;25499;53.958;10.970;2023-03-14T15:39:54;99091.94;;;5.19;73.53
39823;BME280;25499;53.958;10.970;2023-03-14T15:42:23;99094.69;;;4.97;72.72
39823;BME280;25499;53.958;10.970;2023-03-14T15:44:49;99142.78;;;5.06;73.69
39823;BME280;25499;53.958;10.970;2023-03-14T15:47:14;99200.31;;;5.14;75.04
39823;BME280;25499;53.958;10.970;2023-03-14T15:49:39;99187.47;;;5.05;74.88
39823;BME280;25499;53.958;10.970;2023-03-14T15:52:05;99197.78;;;5.08;75.37
39823;BME280;25499;53.958;10.970;2023-03-14T15:54:33;99209.00;;;4.99;75.40
39823;BME280;25499;53.958;10.970;2023-03-14T15:56:59;99220.16;;;5.06;75.78
39823;BME280;25499;53.958;10.970;2023-03-14T15:59:24;99233.03;;;5.08;75.99
39823;BME280;25499;53.958;10.970;2023-03-14T16:01:50;99228.81;;;4.93;75.69
39823;BME280;25499;53.958;10.970;2023-03-14T16:04:16;99236.53;;;4.93;75.95
39823;BME280;25499;53.958;10.970;2023-03-14T16:06:43;99232.28;;;4.82;75.62
39823;BME280;25499;53.958;10.970;2023-03-14T16:09:13;99246.09;;;4.75;75.60
39823;BME280;25499;53.958;10.970;2023-03-14T16:11:39;99259.78;;;4.86;75.65
39823;BME280;25499;53.958;10.970;2023-03-14T16:14:05;99262.34;;;4.88;75.40
39823;BME280;25499;53.958;10.970;2023-03-14T16:16:30;99289.78;;;5.01;75.47
39823;BME280;25499;53.958;10.970;2023-03-14T16:18:56;99274.31;;;5.01;75.52
39823;BME280;25499;53.958;10.970;2023-03-14T16:21:21;99262.34;;;4.82;75.17
39823;BME280;25499;53.958;10.970;2023-03-14T16:23:47;99262.41;;;4.76;74.74
39823;BME280;25499;53.958;10.970;2023-03-14T16:26:15;99280.41;;;4.82;74.79
39823;BME280;25499;53.958;10.970;2023-03-14T16:28:41;99297.53;;;4.95;74.78
39823;BME280;25499;53.958;10.970;2023-03-14T16:31:13;99258.06;;;4.85;74.04
39823;BME280;25499;53.958;10.970;2023-03-14T16:33:40;99258.00;;;5.02;73.36
39823;BME280;25499;53.958;10.970;2023-03-14T16:36:07;99249.47;;;4.86;72.90
39823;BME280;25499;53.958;10.970;2023-03-14T16:38:37;99252.88;;;4.92;72.90
39823;BME280;25499;53.958;10.970;2023-03-14T16:41:14;99256.34;;;4.80;72.41
39823;BME280;25499;53.958;10.970;2023-03-14T16:43:40;99281.22;;;4.99;72.36
39823;BME280;25499;53.958;10.970;2023-03-14T16:46:08;99277.81;;;4.86;72.46
39823;BME280;25499;53.958;10.970;2023-03-14T16:48:35;99282.13;;;4.83;72.68
39823;BME280;25499;53.958;10.970;2023-03-14T16:51:01;99258.94;;;4.81;71.62
39823;BME280;25499;53.958;10.970;2023-03-14T16:53:26;99276.13;;;4.84;72.15
39823;BME280;25499;53.958;10.970;2023-03-14T16:55:54;99271.81;;;4.88;71.51
39823;BME280;25499;53.958;10.970;2023-03-14T16:58:19;99301.88;;;4.89;72.33
39823;BME280;25499;53.958;10.970;2023-03-14T17:00:46;99310.44;;;4.95;72.20
39823;BME280;25499;53.958;10.970;2023-03-14T17:03:12;99323.38;;;4.88;72.23
39823;BME280;25499;53.958;10.970;2023-03-14T17:05:44;99370.63;;;4.88;73.69
39823;BME280;25499;53.958;10.970;2023-03-14T17:08:09;99340.63;;;4.67;72.88
39823;BME280;25499;53.958;10.970;2023-03-14T17:10:35;99317.44;;;4.67;72.14
39823;BME280;25499;53.958;10.970;2023-03-14T17:13:00;99289.09;;;4.59;70.80
39823;BME280;25499;53.958;10.970;2023-03-14T17:15:26;99325.16;;;4.55;71.37
39823;BME280;25499;53.958;10.970;2023-03-14T17:17:51;99342.38;;;4.45;71.57
39823;BME280;25499;53.958;10.970;2023-03-14T17:20:16;99308.03;;;4.38;70.70
39823;BME280;25499;53.958;10.970;2023-03-14T17:22:42;99330.34;;;4.45;70.56
39823;BME280;25499;53.958;10.970;2023-03-14T17:25:07;99358.69;;;4.41;70.92
39823;BME280;25499;53.958;10.970;2023-03-14T17:27:33;99350.97;;;4.32;70.91
39823;BME280;25499;53.958;10.970;2023-03-14T17:30:01;99374.16;;;4.42;70.79
39823;BME280;25499;53.958;10.970;2023-03-14T17:32:26;99408.50;;;4.44;71.92
39823;BME280;25499;53.958;10.970;2023-03-14T17:34:53;99416.22;;;4.29;72.16
39823;BME280;25499;53.958;10.970;2023-03-14T17:37:18;99438.56;;;4.33;73.01
39823;BME280;25499;53.958;10.970;2023-03-14T17:39:44;99465.16;;;4.29;73.64
39823;BME280;25499;53.958;10.970;2023-03-14T17:42:09;99448.84;;;4.25;73.18
39823;BME280;25499;53.958;10.970;2023-03-14T17:44:35;99484.03;;;4.19;73.91
39823;BME280;25499;53.958;10.970;2023-03-14T17:47:00;99487.50;;;4.25;74.00
39823;BME280;25499;53.958;10.970;2023-03-14T17:49:26;99463.44;;;4.16;73.14
39823;BME280;25499;53.958;10.970;2023-03-14T17:51:52;99488.31;;;4.14;73.25
39823;BME280;25499;53.958;10.970;2023-03-14T17:54:17;99508.09;;;4.16;73.88
39823;BME280;25499;53.958;10.970;2023-03-14T17:56:43;99526.09;;;4.11;74.28
39823;BME280;25499;53.958;10.970;2023-03-14T17:59:12;99541.53;;;4.08;74.60
39823;BME280;25499;53.958;10.970;2023-03-14T18:01:38;99528.66;;;4.01;74.04
39823;BME280;25499;53.958;10.970;2023-03-14T18:04:04;99565.56;;;4.04;75.08
39823;BME280;25499;53.958;10.970;2023-03-14T18:06:31;99570.75;;;4.07;74.96
39823;BME280;25499;53.958;10.970;2023-03-14T18:08:57;99561.25;;;4.00;74.39
39823;BME280;25499;53.958;10.970;2023-03-14T18:11:24;99574.13;;;3.94;74.86
39823;BME280;25499;53.958;10.970;2023-03-14T18:13:50;99598.16;;;3.96;75.74
39823;BME280;25499;53.958;10.970;2023-03-14T18:16:15;99580.97;;;3.89;75.04
39823;BME280;25499;53.958;10.970;2023-03-14T18:18:42;99573.13;;;3.75;74.69
39823;BME280;25499;53.958;10.970;2023-03-14T18:21:08;99571.41;;;3.69;74.47
39823;BME280;25499;53.958;10.970;2023-03-14T18:23:34;99581.72;;;3.74;74.34
39823;BME280;25499;53.958;10.970;2023-03-14T18:25:59;99592.03;;;3.76;74.54
39823;BME280;25499;53.958;10.970;2023-03-14T18:28:26;99602.31;;;3.74;74.91
39823;BME280;25499;53.958;10.970;2023-03-14T18:30:59;99620.22;;;3.55;75.66
39823;BME280;25499;53.958;10.970;2023-03-14T18:33:24;99601.31;;;3.52;74.97
39823;BME280;25499;53.958;10.970;2023-03-14T18:35:50;99625.38;;;3.59;75.63
39823;BME280;25499;53.958;10.970;2023-03-14T18:38:16;99645.13;;;3.63;76.11
39823;BME280;25499;53.958;10.970;2023-03-14T18:40:42;99670.94;;;3.70;76.67
39823;BME280;25499;53.958;10.970;2023-03-14T18:43:07;99662.31;;;3.64;76.44
39823;BME280;25499;53.958;10.970;2023-03-14T18:45:33;99644.25;;;3.58;75.94
39823;BME280;25499;53.958;10.970;2023-03-14T18:47:58;99676.00;;;3.63;76.53
39823;BME280;25499;53.958;10.970;2023-03-14T18:50:24;99672.53;;;3.51;76.60
39823;BME280;25499;53.958;10.970;2023-03-14T18:52:49;99683.72;;;3.60;76.52
39823;BME280;25499;53.958;10.970;2023-03-14T18:55:15;99680.16;;;3.44;76.18
39823;BME280;25499;53.958;10.970;2023-03-14T18:57:40;99685.28;;;3.42;76.27
39823;BME280;25499;53.958;10.970;2023-03-14T19:00:06;99689.59;;;3.43;75.92
39823;BME280;25499;53.958;10.970;2023-03-14T19:02:34;99678.44;;;3.44;75.72
39823;BME280;25499;53.958;10.970;2023-03-14T19:05:00;99705.91;;;3.47;76.27
39823;BME280;25499;53.958;10.970;2023-03-14T19:07:26;99722.16;;;3.43;76.66
39823;BME280;25499;53.958;10.970;2023-03-14T19:09:51;99724.66;;;3.33;76.79
39823;BME280;25499;53.958;10.970;2023-03-14T19:12:17;99710.88;;;3.27;76.56
39823;BME280;25499;53.958;10.970;2023-03-14T19:14:43;99709.16;;;3.26;76.65
39823;BME280;25499;53.958;10.970;2023-03-14T19:17:09;99724.63;;;3.30;76.84
39823;BME280;25499;53.958;10.970;2023-03-14T19:19:35;99728.78;;;3.19;76.86
39823;BME280;25499;53.958;10.970;2023-03-14T19:22:00;99745.16;;;3.24;77.12
39823;BME280;25499;53.958;10.970;2023-03-14T19:24:26;99734.81;;;3.18;76.86
39823;BME280;25499;53.958;10.970;2023-03-14T19:26:52;99736.50;;;3.19;76.80
39823;BME280;25499;53.958;10.970;2023-03-14T19:29:18;99746.84;;;3.22;76.72
39823;BME280;25499;53.958;10.970;2023-03-14T19:31:47;99726.16;;;3.11;75.92
39823;BME280;25499;53.958;10.970;2023-03-14T19:34:14;99714.16;;;3.12;75.62
39823;BME280;25499;53.958;10.970;2023-03-14T19:36:41;99712.41;;;3.06;75.32
39823;BME280;25499;53.958;10.970;2023-03-14T19:39:07;99727.81;;;3.05;76.01
39823;BME280;25499;53.958;10.970;2023-03-14T19:41:33;99731.28;;;3.10;75.80
39823;BME280;25499;53.958;10.970;2023-03-14T19:44:01;99712.31;;;2.98;75.24
39823;BME280;25499;53.958;10.970;2023-03-14T19:46:28;99725.16;;;2.95;75.26
39823;BME280;25499;53.958;10.970;2023-03-14T19:48:59;99744.88;;;2.99;75.39
39823;BME280;25499;53.958;10.970;2023-03-14T19:51:25;99765.50;;;3.03;76.34
39823;BME280;25499;53.958;10.970;2023-03-14T19:53:58;99767.06;;;2.91;76.57
39823;BME280;25499;53.958;10.970;2023-03-14T20:03:10;99786.56;;;2.74;76.44
39823;BME280;25499;53.958;10.970;2023-03-14T20:05:40;99802.81;;;2.73;76.96
39823;BME280;25499;53.958;10.970;2023-03-14T20:08:13;99808.00;;;2.76;76.97
39823;BME280;25499;53.958;10.970;2023-03-14T20:10:40;99821.69;;;2.75;77.27
39823;BME280;25499;53.958;10.970;2023-03-14T20:13:07;99834.53;;;2.72;77.52
39823;BME280;25499;53.958;10.970;2023-03-14T20:15:34;99830.94;;;2.60;77.47
39823;BME280;25499;53.958;10.970;2023-03-14T20:18:00;99847.31;;;2.69;77.42
39823;BME280;25499;53.958;10.970;2023-03-14T20:20:26;99849.03;;;2.70;77.38
39823;BME280;25499;53.958;10.970;2023-03-14T20:22:52;99841.13;;;2.56;77.57
39823;BME280;25499;53.958;10.970;2023-03-14T20:25:18;99868.56;;;2.57;78.33
39823;BME280;25499;53.958;10.970;2023-03-14T20:27:47;99888.34;;;2.63;78.58
39823;BME280;25499;53.958;10.970;2023-03-14T20:30:15;99898.56;;;2.59;79.21
39823;BME280;25499;53.958;10.970;2023-03-14T20:32:43;99901.94;;;2.55;79.39
39823;BME280;25499;53.958;10.970;2023-03-14T20:35:10;99895.81;;;2.47;79.43
39823;BME280;25499;53.958;10.970;2023-03-14T20:37:37;99913.00;;;2.50;79.80
39823;BME280;25499;53.958;10.970;2023-03-14T20:40:05;99912.91;;;2.45;79.91
39823;BME280;25499;53.958;10.970;2023-03-14T20:42:35;99922.47;;;2.54;79.73
39823;BME280;25499;53.958;10.970;2023-03-14T20:45:10;99918.81;;;2.41;80.09
39823;BME280;25499;53.958;10.970;2023-03-14T20:47:38;99937.84;;;2.52;80.70
39823;BME280;25499;53.958;10.970;2023-03-14T20:50:05;99938.66;;;2.48;80.49
39823;BME280;25499;53.958;10.970;2023-03-14T20:52:31;99940.16;;;2.37;80.52
39823;BME280;25499;53.958;10.970;2023-03-14T20:55:01;99949.63;;;2.38;80.64
39823;BME280;25499;53.958;10.970;2023-03-14T20:57:29;99949.53;;;2.33;80.32
39823;BME280;25499;53.958;10.970;2023-03-14T20:59:58;99956.31;;;2.30;80.76
39823;BME280;25499;53.958;10.970;2023-03-14T21:02:24;99969.00;;;2.22;81.28
39823;BME280;25499;53.958;10.970;2023-03-14T21:04:50;99980.09;;;2.19;81.63
39823;BME280;25499;53.958;10.970;2023-03-14T21:07:18;99991.31;;;2.24;82.15
